sensor_id;sensor_type;location;lat;lon;timestamp;P1;durP1;ratioP1;P2;durP2;ratioP2
16173;SDS011;14031;50.158;8.626;2023-04-29T00:00:07;1.83;;;1.73;;
16173;SDS011;14031;50.158;8.626;2023-04-29T00:02:35;2.10;;;2.00;;
16173;SDS011;14031;50.158;8.626;2023-04-29T00:05:02;3.20;;;2.17;;
16173;SDS011;14031;50.158;8.626;2023-04-29T00:07:29;2.50;;;2.30;;
16173;SDS011;14031;50.158;8.626;2023-04-29T00:09:56;2.40;;;2.17;;
16173;SDS011;14031;50.158;8.626;2023-04-29T00:12:23;2.30;;;2.20;;
16173;SDS011;14031;50.158;8.626;2023-04-29T00:14:51;2.80;;;2.17;;
16173;SDS011;14031;50.158;8.626;2023-04-29T00:17:19;1.93;;;1.83;;
16173;SDS011;14031;50.158;8.626;2023-04-29T00:19:46;2.40;;;2.00;;
16173;SDS011;14031;50.158;8.626;2023-04-29T00:22:14;2.20;;;2.10;;
16173;SDS011;14031;50.158;8.626;2023-04-29T00:24:41;2.30;;;2.10;;
16173;SDS011;14031;50.158;8.626;2023-04-29T00:27:08;2.10;;;2.00;;
16173;SDS011;14031;50.158;8.626;2023-04-29T00:29:35;3.07;;;1.70;;
16173;SDS011;14031;50.158;8.626;2023-04-29T00:32:02;2.20;;;2.10;;
16173;SDS011;14031;50.158;8.626;2023-04-29T00:34:31;2.17;;;2.03;;
16173;SDS011;14031;50.158;8.626;2023-04-29T00:36:57;2.73;;;1.70;;
16173;SDS011;14031;50.158;8.626;2023-04-29T00:39:24;1.90;;;1.80;;
16173;SDS011;14031;50.158;8.626;2023-04-29T00:41:51;1.70;;;1.70;;
16173;SDS011;14031;50.158;8.626;2023-04-29T00:44:18;3.83;;;2.10;;
16173;SDS011;14031;50.158;8.626;2023-04-29T00:46:45;2.10;;;2.00;;
16173;SDS011;14031;50.158;8.626;2023-04-29T00:49:11;2.23;;;2.13;;
16173;SDS011;14031;50.158;8.626;2023-04-29T00:51:41;2.50;;;1.83;;
16173;SDS011;14031;50.158;8.626;2023-04-29T00:54:09;1.90;;;1.90;;
16173;SDS011;14031;50.158;8.626;2023-04-29T00:56:37;1.97;;;1.87;;
16173;SDS011;14031;50.158;8.626;2023-04-29T00:59:06;2.17;;;2.00;;
16173;SDS011;14031;50.158;8.626;2023-04-29T01:01:34;1.60;;;1.60;;
16173;SDS011;14031;50.158;8.626;2023-04-29T01:04:01;2.77;;;1.80;;
16173;SDS011;14031;50.158;8.626;2023-04-29T01:06:32;2.00;;;1.70;;
16173;SDS011;14031;50.158;8.626;2023-04-29T01:09:08;2.57;;;1.60;;
16173;SDS011;14031;50.158;8.626;2023-04-29T01:11:51;1.93;;;1.93;;
16173;SDS011;14031;50.158;8.626;2023-04-29T01:14:21;2.20;;;1.63;;
16173;SDS011;14031;50.158;8.626;2023-04-29T01:16:50;2.00;;;1.90;;
16173;SDS011;14031;50.158;8.626;2023-04-29T01:19:20;1.90;;;1.80;;
16173;SDS011;14031;50.158;8.626;2023-04-29T01:22:02;1.87;;;1.77;;
16173;SDS011;14031;50.158;8.626;2023-04-29T01:24:30;2.77;;;2.10;;
16173;SDS011;14031;50.158;8.626;2023-04-29T01:26:58;2.00;;;1.90;;
16173;SDS011;14031;50.158;8.626;2023-04-29T01:29:31;2.00;;;1.90;;
16173;SDS011;14031;50.158;8.626;2023-04-29T01:32:08;2.20;;;2.10;;
16173;SDS011;14031;50.158;8.626;2023-04-29T01:34:43;2.10;;;2.00;;
16173;SDS011;14031;50.158;8.626;2023-04-29T01:37:21;1.90;;;1.80;;
16173;SDS011;14031;50.158;8.626;2023-04-29T01:39:59;1.83;;;1.73;;
16173;SDS011;14031;50.158;8.626;2023-04-29T01:42:34;1.90;;;1.80;;
16173;SDS011;14031;50.158;8.626;2023-04-29T01:45:05;1.80;;;1.80;;
16173;SDS011;14031;50.158;8.626;2023-04-29T01:47:33;1.70;;;1.60;;
16173;SDS011;14031;50.158;8.626;2023-04-29T01:50:01;2.30;;;1.83;;
16173;SDS011;14031;50.158;8.626;2023-04-29T01:52:28;2.17;;;2.07;;
16173;SDS011;14031;50.158;8.626;2023-04-29T01:54:55;1.57;;;1.47;;
16173;SDS011;14031;50.158;8.626;2023-04-29T01:57:23;1.90;;;1.80;;
16173;SDS011;14031;50.158;8.626;2023-04-29T01:59:50;1.77;;;1.77;;
16173;SDS011;14031;50.158;8.626;2023-04-29T02:02:16;1.73;;;1.63;;
16173;SDS011;14031;50.158;8.626;2023-04-29T02:04:45;2.00;;;1.90;;
16173;SDS011;14031;50.158;8.626;2023-04-29T02:07:12;1.77;;;1.73;;
16173;SDS011;14031;50.158;8.626;2023-04-29T02:09:39;2.10;;;2.00;;
16173;SDS011;14031;50.158;8.626;2023-04-29T02:12:06;2.73;;;1.90;;
16173;SDS011;14031;50.158;8.626;2023-04-29T02:14:34;4.20;;;2.00;;
16173;SDS011;14031;50.158;8.626;2023-04-29T02:17:01;2.43;;;1.80;;
16173;SDS011;14031;50.158;8.626;2023-04-29T02:19:28;8.93;;;1.80;;
16173;SDS011;14031;50.158;8.626;2023-04-29T02:21:54;1.40;;;1.40;;
16173;SDS011;14031;50.158;8.626;2023-04-29T02:24:21;1.70;;;1.60;;
16173;SDS011;14031;50.158;8.626;2023-04-29T02:26:48;1.40;;;1.30;;
16173;SDS011;14031;50.158;8.626;2023-04-29T02:29:15;1.83;;;1.50;;
16173;SDS011;14031;50.158;8.626;2023-04-29T02:31:43;1.30;;;1.30;;
16173;SDS011;14031;50.158;8.626;2023-04-29T02:34:09;1.40;;;1.40;;
16173;SDS011;14031;50.158;8.626;2023-04-29T02:36:36;1.50;;;1.40;;
16173;SDS011;14031;50.158;8.626;2023-04-29T02:39:03;1.33;;;1.33;;
16173;SDS011;14031;50.158;8.626;2023-04-29T02:41:30;1.63;;;1.63;;
16173;SDS011;14031;50.158;8.626;2023-04-29T02:43:57;1.43;;;1.43;;
16173;SDS011;14031;50.158;8.626;2023-04-29T02:46:24;1.97;;;1.90;;
16173;SDS011;14031;50.158;8.626;2023-04-29T02:48:52;2.57;;;2.43;;
16173;SDS011;14031;50.158;8.626;2023-04-29T02:51:19;2.03;;;1.93;;
16173;SDS011;14031;50.158;8.626;2023-04-29T02:53:45;2.00;;;1.90;;
16173;SDS011;14031;50.158;8.626;2023-04-29T02:56:12;4.10;;;3.90;;
16173;SDS011;14031;50.158;8.626;2023-04-29T02:58:39;4.13;;;3.93;;
16173;SDS011;14031;50.158;8.626;2023-04-29T03:01:06;3.87;;;3.67;;
16173;SDS011;14031;50.158;8.626;2023-04-29T03:03:33;5.30;;;4.00;;
16173;SDS011;14031;50.158;8.626;2023-04-29T03:06:01;4.23;;;3.77;;
16173;SDS011;14031;50.158;8.626;2023-04-29T03:08:27;4.53;;;4.33;;
16173;SDS011;14031;50.158;8.626;2023-04-29T03:10:54;5.90;;;5.40;;
16173;SDS011;14031;50.158;8.626;2023-04-29T03:13:21;5.37;;;4.97;;
16173;SDS011;14031;50.158;8.626;2023-04-29T03:15:48;5.50;;;5.10;;
16173;SDS011;14031;50.158;8.626;2023-04-29T03:18:14;5.50;;;5.20;;
16173;SDS011;14031;50.158;8.626;2023-04-29T03:20:41;5.63;;;5.13;;
16173;SDS011;14031;50.158;8.626;2023-04-29T03:23:09;5.57;;;5.27;;
16173;SDS011;14031;50.158;8.626;2023-04-29T03:25:36;5.30;;;4.93;;
16173;SDS011;14031;50.158;8.626;2023-04-29T03:28:03;5.00;;;4.70;;
16173;SDS011;14031;50.158;8.626;2023-04-29T03:30:30;9.50;;;5.23;;
16173;SDS011;14031;50.158;8.626;2023-04-29T03:32:57;5.63;;;5.33;;
16173;SDS011;14031;50.158;8.626;2023-04-29T03:35:24;5.70;;;5.40;;
16173;SDS011;14031;50.158;8.626;2023-04-29T03:37:51;5.67;;;5.37;;
16173;SDS011;14031;50.158;8.626;2023-04-29T03:40:19;5.13;;;4.83;;
16173;SDS011;14031;50.158;8.626;2023-04-29T03:42:46;5.77;;;5.47;;
16173;SDS011;14031;50.158;8.626;2023-04-29T03:45:12;5.67;;;5.27;;
16173;SDS011;14031;50.158;8.626;2023-04-29T03:47:39;6.53;;;5.90;;
16173;SDS011;14031;50.158;8.626;2023-04-29T03:50:06;7.40;;;6.80;;
16173;SDS011;14031;50.158;8.626;2023-04-29T03:52:34;6.63;;;6.13;;
16173;SDS011;14031;50.158;8.626;2023-04-29T03:55:01;7.00;;;6.47;;
16173;SDS011;14031;50.158;8.626;2023-04-29T03:57:29;7.53;;;6.93;;
16173;SDS011;14031;50.158;8.626;2023-04-29T03:59:56;6.77;;;6.27;;
16173;SDS011;14031;50.158;8.626;2023-04-29T04:02:23;6.67;;;6.27;;
16173;SDS011;14031;50.158;8.626;2023-04-29T04:04:50;7.20;;;6.70;;
16173;SDS011;14031;50.158;8.626;2023-04-29T04:07:19;8.10;;;7.50;;
16173;SDS011;14031;50.158;8.626;2023-04-29T04:09:45;8.67;;;7.87;;
16173;SDS011;14031;50.158;8.626;2023-04-29T04:12:12;8.27;;;7.57;;
16173;SDS011;14031;50.158;8.626;2023-04-29T04:14:40;8.57;;;7.73;;
16173;SDS011;14031;50.158;8.626;2023-04-29T04:17:07;8.20;;;7.50;;
16173;SDS011;14031;50.158;8.626;2023-04-29T04:19:34;7.50;;;7.00;;
16173;SDS011;14031;50.158;8.626;2023-04-29T04:22:01;7.87;;;7.27;;
16173;SDS011;14031;50.158;8.626;2023-04-29T04:24:28;8.70;;;7.90;;
16173;SDS011;14031;50.158;8.626;2023-04-29T04:26:55;9.20;;;8.47;;
16173;SDS011;14031;50.158;8.626;2023-04-29T04:29:22;10.13;;;9.10;;
16173;SDS011;14031;50.158;8.626;2023-04-29T04:31:50;8.30;;;7.70;;
16173;SDS011;14031;50.158;8.626;2023-04-29T04:34:17;8.73;;;7.93;;
16173;SDS011;14031;50.158;8.626;2023-04-29T04:36:44;8.73;;;8.00;;
16173;SDS011;14031;50.158;8.626;2023-04-29T04:39:10;8.00;;;7.30;;
16173;SDS011;14031;50.158;8.626;2023-04-29T04:41:37;9.83;;;8.07;;
16173;SDS011;14031;50.158;8.626;2023-04-29T04:44:04;8.00;;;7.30;;
16173;SDS011;14031;50.158;8.626;2023-04-29T04:46:31;9.33;;;8.47;;
16173;SDS011;14031;50.158;8.626;2023-04-29T04:48:59;8.13;;;7.53;;
16173;SDS011;14031;50.158;8.626;2023-04-29T04:51:26;8.43;;;7.77;;
16173;SDS011;14031;50.158;8.626;2023-04-29T04:53:53;8.60;;;7.80;;
16173;SDS011;14031;50.158;8.626;2023-04-29T04:56:20;8.47;;;7.77;;
16173;SDS011;14031;50.158;8.626;2023-04-29T04:58:47;9.27;;;8.37;;
16173;SDS011;14031;50.158;8.626;2023-04-29T05:01:14;8.40;;;7.73;;
16173;SDS011;14031;50.158;8.626;2023-04-29T05:03:41;8.20;;;7.40;;
16173;SDS011;14031;50.158;8.626;2023-04-29T05:06:09;8.60;;;7.90;;
16173;SDS011;14031;50.158;8.626;2023-04-29T05:08:36;8.63;;;7.93;;
16173;SDS011;14031;50.158;8.626;2023-04-29T05:11:02;8.10;;;7.50;;
16173;SDS011;14031;50.158;8.626;2023-04-29T05:13:29;7.90;;;7.27;;
16173;SDS011;14031;50.158;8.626;2023-04-29T05:16:00;7.80;;;7.10;;
16173;SDS011;14031;50.158;8.626;2023-04-29T05:18:27;7.60;;;7.00;;
16173;SDS011;14031;50.158;8.626;2023-04-29T05:20:54;6.40;;;5.80;;
16173;SDS011;14031;50.158;8.626;2023-04-29T05:23:22;7.23;;;6.73;;
16173;SDS011;14031;50.158;8.626;2023-04-29T05:25:49;6.67;;;6.17;;
16173;SDS011;14031;50.158;8.626;2023-04-29T05:28:16;6.57;;;6.07;;
16173;SDS011;14031;50.158;8.626;2023-04-29T05:30:42;6.67;;;6.17;;
16173;SDS011;14031;50.158;8.626;2023-04-29T05:33:09;5.40;;;5.00;;
16173;SDS011;14031;50.158;8.626;2023-04-29T05:35:36;5.70;;;5.30;;
16173;SDS011;14031;50.158;8.626;2023-04-29T05:38:03;5.77;;;5.37;;
16173;SDS011;14031;50.158;8.626;2023-04-29T05:40:31;5.10;;;4.80;;
16173;SDS011;14031;50.158;8.626;2023-04-29T05:42:58;4.97;;;4.57;;
16173;SDS011;14031;50.158;8.626;2023-04-29T05:45:24;4.93;;;4.53;;
16173;SDS011;14031;50.158;8.626;2023-04-29T05:47:51;5.03;;;4.60;;
16173;SDS011;14031;50.158;8.626;2023-04-29T05:50:18;5.00;;;4.70;;
16173;SDS011;14031;50.158;8.626;2023-04-29T05:52:45;5.10;;;4.80;;
16173;SDS011;14031;50.158;8.626;2023-04-29T05:55:11;5.97;;;5.57;;
16173;SDS011;14031;50.158;8.626;2023-04-29T05:57:39;6.50;;;6.00;;
16173;SDS011;14031;50.158;8.626;2023-04-29T06:00:06;5.83;;;5.33;;
16173;SDS011;14031;50.158;8.626;2023-04-29T06:02:34;6.33;;;5.83;;
16173;SDS011;14031;50.158;8.626;2023-04-29T06:05:02;5.77;;;5.37;;
16173;SDS011;14031;50.158;8.626;2023-04-29T06:07:28;6.03;;;5.53;;
16173;SDS011;14031;50.158;8.626;2023-04-29T06:09:55;5.03;;;4.70;;
16173;SDS011;14031;50.158;8.626;2023-04-29T06:12:22;5.50;;;5.00;;
16173;SDS011;14031;50.158;8.626;2023-04-29T06:14:50;5.80;;;5.40;;
16173;SDS011;14031;50.158;8.626;2023-04-29T06:17:17;5.87;;;5.37;;
16173;SDS011;14031;50.158;8.626;2023-04-29T06:19:43;5.70;;;5.30;;
16173;SDS011;14031;50.158;8.626;2023-04-29T06:22:10;6.03;;;5.53;;
16173;SDS011;14031;50.158;8.626;2023-04-29T06:24:37;5.70;;;5.30;;
16173;SDS011;14031;50.158;8.626;2023-04-29T06:27:04;5.20;;;4.80;;
16173;SDS011;14031;50.158;8.626;2023-04-29T06:29:31;5.67;;;5.27;;
16173;SDS011;14031;50.158;8.626;2023-04-29T06:31:59;5.70;;;5.30;;
16173;SDS011;14031;50.158;8.626;2023-04-29T06:34:25;5.97;;;5.47;;
16173;SDS011;14031;50.158;8.626;2023-04-29T06:36:52;5.37;;;5.03;;
16173;SDS011;14031;50.158;8.626;2023-04-29T06:39:19;5.33;;;5.03;;
16173;SDS011;14031;50.158;8.626;2023-04-29T06:41:46;5.27;;;4.97;;
16173;SDS011;14031;50.158;8.626;2023-04-29T06:44:12;5.63;;;5.23;;
16173;SDS011;14031;50.158;8.626;2023-04-29T06:46:40;5.83;;;5.43;;
16173;SDS011;14031;50.158;8.626;2023-04-29T06:49:09;5.30;;;4.90;;
16173;SDS011;14031;50.158;8.626;2023-04-29T06:51:36;5.10;;;4.80;;
16173;SDS011;14031;50.158;8.626;2023-04-29T06:54:03;4.90;;;4.07;;
16173;SDS011;14031;50.158;8.626;2023-04-29T06:56:29;4.77;;;4.33;;
16173;SDS011;14031;50.158;8.626;2023-04-29T06:58:56;6.07;;;5.47;;
16173;SDS011;14031;50.158;8.626;2023-04-29T07:01:23;5.23;;;4.93;;
16173;SDS011;14031;50.158;8.626;2023-04-29T07:03:50;6.10;;;5.70;;
16173;SDS011;14031;50.158;8.626;2023-04-29T07:06:18;6.37;;;5.87;;
16173;SDS011;14031;50.158;8.626;2023-04-29T07:08:45;5.70;;;5.30;;
16173;SDS011;14031;50.158;8.626;2023-04-29T07:11:11;7.23;;;6.63;;
16173;SDS011;14031;50.158;8.626;2023-04-29T07:13:38;6.50;;;6.07;;
16173;SDS011;14031;50.158;8.626;2023-04-29T07:16:07;6.67;;;6.20;;
16173;SDS011;14031;50.158;8.626;2023-04-29T07:18:41;6.93;;;6.17;;
16173;SDS011;14031;50.158;8.626;2023-04-29T07:21:07;6.80;;;6.20;;
16173;SDS011;14031;50.158;8.626;2023-04-29T07:23:35;6.23;;;5.83;;
16173;SDS011;14031;50.158;8.626;2023-04-29T07:26:07;6.27;;;5.50;;
16173;SDS011;14031;50.158;8.626;2023-04-29T07:28:35;7.13;;;6.53;;
16173;SDS011;14031;50.158;8.626;2023-04-29T07:31:01;6.50;;;6.00;;
16173;SDS011;14031;50.158;8.626;2023-04-29T07:33:28;5.93;;;5.43;;
16173;SDS011;14031;50.158;8.626;2023-04-29T07:35:55;6.33;;;5.73;;
16173;SDS011;14031;50.158;8.626;2023-04-29T07:38:22;5.10;;;4.80;;
16173;SDS011;14031;50.158;8.626;2023-04-29T07:40:50;3.93;;;3.73;;
16173;SDS011;14031;50.158;8.626;2023-04-29T07:43:17;5.00;;;4.50;;
16173;SDS011;14031;50.158;8.626;2023-04-29T07:45:43;4.23;;;3.83;;
16173;SDS011;14031;50.158;8.626;2023-04-29T07:48:10;4.27;;;3.97;;
16173;SDS011;14031;50.158;8.626;2023-04-29T07:50:37;4.70;;;4.40;;
16173;SDS011;14031;50.158;8.626;2023-04-29T07:53:04;4.27;;;3.93;;
16173;SDS011;14031;50.158;8.626;2023-04-29T07:55:31;4.13;;;3.93;;
16173;SDS011;14031;50.158;8.626;2023-04-29T07:57:59;7.93;;;5.23;;
16173;SDS011;14031;50.158;8.626;2023-04-29T08:00:26;3.80;;;3.60;;
16173;SDS011;14031;50.158;8.626;2023-04-29T08:02:53;4.40;;;4.10;;
16173;SDS011;14031;50.158;8.626;2023-04-29T08:05:22;3.93;;;3.63;;
16173;SDS011;14031;50.158;8.626;2023-04-29T08:07:49;6.13;;;3.67;;
16173;SDS011;14031;50.158;8.626;2023-04-29T08:10:17;4.07;;;3.87;;
16173;SDS011;14031;50.158;8.626;2023-04-29T08:12:47;4.20;;;3.70;;
16173;SDS011;14031;50.158;8.626;2023-04-29T08:15:16;3.20;;;3.00;;
16173;SDS011;14031;50.158;8.626;2023-04-29T08:17:42;3.40;;;3.20;;
16173;SDS011;14031;50.158;8.626;2023-04-29T08:20:10;3.77;;;3.57;;
16173;SDS011;14031;50.158;8.626;2023-04-29T08:22:37;3.60;;;3.30;;
16173;SDS011;14031;50.158;8.626;2023-04-29T08:25:04;3.30;;;3.10;;
16173;SDS011;14031;50.158;8.626;2023-04-29T08:27:31;3.53;;;3.33;;
16173;SDS011;14031;50.158;8.626;2023-04-29T08:29:58;3.10;;;2.90;;
16173;SDS011;14031;50.158;8.626;2023-04-29T08:32:26;3.37;;;3.17;;
16173;SDS011;14031;50.158;8.626;2023-04-29T08:34:53;3.27;;;3.03;;
16173;SDS011;14031;50.158;8.626;2023-04-29T08:37:20;3.83;;;3.40;;
16173;SDS011;14031;50.158;8.626;2023-04-29T08:39:46;3.50;;;3.20;;
16173;SDS011;14031;50.158;8.626;2023-04-29T08:42:13;3.33;;;3.03;;
16173;SDS011;14031;50.158;8.626;2023-04-29T08:44:41;3.13;;;2.97;;
16173;SDS011;14031;50.158;8.626;2023-04-29T08:47:09;3.50;;;3.30;;
16173;SDS011;14031;50.158;8.626;2023-04-29T08:49:37;4.67;;;2.93;;
16173;SDS011;14031;50.158;8.626;2023-04-29T08:52:05;3.10;;;2.90;;
16173;SDS011;14031;50.158;8.626;2023-04-29T08:54:32;3.90;;;3.70;;
16173;SDS011;14031;50.158;8.626;2023-04-29T08:57:00;4.17;;;3.37;;
16173;SDS011;14031;50.158;8.626;2023-04-29T08:59:27;4.00;;;3.70;;
16173;SDS011;14031;50.158;8.626;2023-04-29T09:01:55;3.97;;;3.67;;
16173;SDS011;14031;50.158;8.626;2023-04-29T09:04:26;5.17;;;3.50;;
16173;SDS011;14031;50.158;8.626;2023-04-29T09:07:01;3.80;;;3.60;;
16173;SDS011;14031;50.158;8.626;2023-04-29T09:09:29;3.63;;;3.43;;
16173;SDS011;14031;50.158;8.626;2023-04-29T09:11:57;3.73;;;3.43;;
16173;SDS011;14031;50.158;8.626;2023-04-29T09:14:23;3.00;;;2.80;;
16173;SDS011;14031;50.158;8.626;2023-04-29T09:16:51;2.40;;;2.30;;
16173;SDS011;14031;50.158;8.626;2023-04-29T09:19:31;2.50;;;2.40;;
16173;SDS011;14031;50.158;8.626;2023-04-29T09:21:58;3.10;;;2.90;;
16173;SDS011;14031;50.158;8.626;2023-04-29T09:24:28;3.43;;;3.23;;
16173;SDS011;14031;50.158;8.626;2023-04-29T09:26:56;4.23;;;3.03;;
16173;SDS011;14031;50.158;8.626;2023-04-29T09:29:23;3.40;;;3.20;;
16173;SDS011;14031;50.158;8.626;2023-04-29T09:31:50;3.40;;;3.20;;
16173;SDS011;14031;50.158;8.626;2023-04-29T09:34:29;3.97;;;2.97;;
16173;SDS011;14031;50.158;8.626;2023-04-29T09:36:57;3.17;;;2.97;;
16173;SDS011;14031;50.158;8.626;2023-04-29T09:39:25;3.07;;;2.77;;
16173;SDS011;14031;50.158;8.626;2023-04-29T09:41:59;3.00;;;2.90;;
16173;SDS011;14031;50.158;8.626;2023-04-29T09:44:27;3.57;;;3.20;;
16173;SDS011;14031;50.158;8.626;2023-04-29T09:46:56;3.30;;;3.10;;
16173;SDS011;14031;50.158;8.626;2023-04-29T09:49:24;3.37;;;3.13;;
16173;SDS011;14031;50.158;8.626;2023-04-29T09:51:52;3.03;;;2.90;;
16173;SDS011;14031;50.158;8.626;2023-04-29T09:54:20;2.97;;;2.87;;
16173;SDS011;14031;50.158;8.626;2023-04-29T09:56:49;3.80;;;3.60;;
16173;SDS011;14031;50.158;8.626;2023-04-29T09:59:17;2.83;;;2.67;;
16173;SDS011;14031;50.158;8.626;2023-04-29T10:01:45;3.73;;;2.27;;
16173;SDS011;14031;50.158;8.626;2023-04-29T10:04:14;2.70;;;2.60;;
16173;SDS011;14031;50.158;8.626;2023-04-29T10:06:42;2.37;;;2.27;;
16173;SDS011;14031;50.158;8.626;2023-04-29T10:09:12;2.03;;;1.93;;
16173;SDS011;14031;50.158;8.626;2023-04-29T10:11:41;2.63;;;1.90;;
16173;SDS011;14031;50.158;8.626;2023-04-29T10:14:11;1.57;;;1.57;;
16173;SDS011;14031;50.158;8.626;2023-04-29T10:16:43;2.00;;;1.90;;
16173;SDS011;14031;50.158;8.626;2023-04-29T10:19:12;2.00;;;1.90;;
16173;SDS011;14031;50.158;8.626;2023-04-29T10:21:43;2.20;;;2.10;;
16173;SDS011;14031;50.158;8.626;2023-04-29T10:24:11;2.00;;;1.90;;
16173;SDS011;14031;50.158;8.626;2023-04-29T10:26:40;1.83;;;1.73;;
16173;SDS011;14031;50.158;8.626;2023-04-29T10:29:08;2.10;;;1.70;;
16173;SDS011;14031;50.158;8.626;2023-04-29T10:31:40;2.42;;;2.28;;
16173;SDS011;14031;50.158;8.626;2023-04-29T10:34:08;2.17;;;1.93;;
16173;SDS011;14031;50.158;8.626;2023-04-29T10:36:36;2.05;;;1.95;;
16173;SDS011;14031;50.158;8.626;2023-04-29T10:39:03;3.45;;;1.65;;
16173;SDS011;14031;50.158;8.626;2023-04-29T10:41:36;1.67;;;1.58;;
16173;SDS011;14031;50.158;8.626;2023-04-29T10:44:09;1.85;;;1.77;;
16173;SDS011;14031;50.158;8.626;2023-04-29T10:46:38;2.40;;;1.90;;
16173;SDS011;14031;50.158;8.626;2023-04-29T10:49:05;2.00;;;1.90;;
16173;SDS011;14031;50.158;8.626;2023-04-29T10:51:33;3.03;;;2.83;;
16173;SDS011;14031;50.158;8.626;2023-04-29T10:54:01;2.15;;;2.05;;
16173;SDS011;14031;50.158;8.626;2023-04-29T10:56:34;1.85;;;1.75;;
16173;SDS011;14031;50.158;8.626;2023-04-29T10:59:02;2.00;;;1.90;;
16173;SDS011;14031;50.158;8.626;2023-04-29T11:04:19;1.98;;;1.90;;
16173;SDS011;14031;50.158;8.626;2023-04-29T11:06:47;2.38;;;2.17;;
16173;SDS011;14031;50.158;8.626;2023-04-29T11:09:18;2.20;;;2.10;;
16173;SDS011;14031;50.158;8.626;2023-04-29T11:11:55;2.10;;;1.90;;
16173;SDS011;14031;50.158;8.626;2023-04-29T11:14:28;2.00;;;1.90;;
16173;SDS011;14031;50.158;8.626;2023-04-29T11:16:59;2.15;;;2.05;;
16173;SDS011;14031;50.158;8.626;2023-04-29T11:19:31;2.13;;;2.03;;
16173;SDS011;14031;50.158;8.626;2023-04-29T11:22:23;2.10;;;2.00;;
16173;SDS011;14031;50.158;8.626;2023-04-29T11:24:52;2.10;;;2.00;;
16173;SDS011;14031;50.158;8.626;2023-04-29T11:27:21;2.10;;;2.00;;
16173;SDS011;14031;50.158;8.626;2023-04-29T11:29:50;2.10;;;2.00;;
16173;SDS011;14031;50.158;8.626;2023-04-29T11:32:23;2.10;;;2.00;;
16173;SDS011;14031;50.158;8.626;2023-04-29T11:34:50;2.17;;;2.08;;
16173;SDS011;14031;50.158;8.626;2023-04-29T11:37:18;2.42;;;2.33;;
16173;SDS011;14031;50.158;8.626;2023-04-29T11:39:46;1.92;;;1.83;;
16173;SDS011;14031;50.158;8.626;2023-04-29T11:42:18;2.10;;;2.00;;
16173;SDS011;14031;50.158;8.626;2023-04-29T11:44:45;1.58;;;1.58;;
16173;SDS011;14031;50.158;8.626;2023-04-29T11:47:12;1.83;;;1.83;;
16173;SDS011;14031;50.158;8.626;2023-04-29T11:49:40;2.40;;;2.20;;
16173;SDS011;14031;50.158;8.626;2023-04-29T11:52:07;3.42;;;3.22;;
16173;SDS011;14031;50.158;8.626;2023-04-29T11:54:35;2.40;;;2.30;;
16173;SDS011;14031;50.158;8.626;2023-04-29T11:57:02;2.92;;;2.53;;
16173;SDS011;14031;50.158;8.626;2023-04-29T11:59:29;2.17;;;2.08;;
16173;SDS011;14031;50.158;8.626;2023-04-29T12:01:56;2.60;;;2.40;;
16173;SDS011;14031;50.158;8.626;2023-04-29T12:04:24;1.90;;;1.83;;
16173;SDS011;14031;50.158;8.626;2023-04-29T12:06:52;1.85;;;1.77;;
16173;SDS011;14031;50.158;8.626;2023-04-29T12:09:22;1.58;;;1.58;;
16173;SDS011;14031;50.158;8.626;2023-04-29T12:11:49;2.53;;;1.85;;
16173;SDS011;14031;50.158;8.626;2023-04-29T12:14:16;1.83;;;1.83;;
16173;SDS011;14031;50.158;8.626;2023-04-29T12:16:44;2.95;;;2.85;;
16173;SDS011;14031;50.158;8.626;2023-04-29T12:19:11;2.35;;;2.25;;
16173;SDS011;14031;50.158;8.626;2023-04-29T12:21:46;1.95;;;1.88;;
16173;SDS011;14031;50.158;8.626;2023-04-29T12:24:15;2.10;;;2.00;;
16173;SDS011;14031;50.158;8.626;2023-04-29T12:26:43;2.10;;;2.00;;
16173;SDS011;14031;50.158;8.626;2023-04-29T12:29:10;1.83;;;1.83;;
16173;SDS011;14031;50.158;8.626;2023-04-29T12:31:39;2.10;;;2.00;;
16173;SDS011;14031;50.158;8.626;2023-04-29T12:34:06;1.80;;;1.70;;
16173;SDS011;14031;50.158;8.626;2023-04-29T12:36:33;2.10;;;2.00;;
16173;SDS011;14031;50.158;8.626;2023-04-29T12:39:01;2.17;;;2.08;;
16173;SDS011;14031;50.158;8.626;2023-04-29T12:41:39;1.70;;;1.67;;
16173;SDS011;14031;50.158;8.626;2023-04-29T12:44:06;1.85;;;1.75;;
16173;SDS011;14031;50.158;8.626;2023-04-29T12:46:34;1.90;;;1.80;;
16173;SDS011;14031;50.158;8.626;2023-04-29T12:49:02;1.63;;;1.60;;
16173;SDS011;14031;50.158;8.626;2023-04-29T12:51:29;1.75;;;1.73;;
16173;SDS011;14031;50.158;8.626;2023-04-29T12:53:57;2.33;;;1.88;;
16173;SDS011;14031;50.158;8.626;2023-04-29T12:56:24;1.88;;;1.77;;
16173;SDS011;14031;50.158;8.626;2023-04-29T12:58:52;1.83;;;1.80;;
16173;SDS011;14031;50.158;8.626;2023-04-29T13:01:19;1.92;;;1.83;;
16173;SDS011;14031;50.158;8.626;2023-04-29T13:03:46;1.52;;;1.52;;
16173;SDS011;14031;50.158;8.626;2023-04-29T13:06:13;1.80;;;1.70;;
16173;SDS011;14031;50.158;8.626;2023-04-29T13:08:41;1.70;;;1.60;;
16173;SDS011;14031;50.158;8.626;2023-04-29T13:11:07;1.60;;;1.60;;
16173;SDS011;14031;50.158;8.626;2023-04-29T13:13:35;2.00;;;1.90;;
16173;SDS011;14031;50.158;8.626;2023-04-29T13:16:03;1.88;;;1.80;;
16173;SDS011;14031;50.158;8.626;2023-04-29T13:18:30;2.15;;;2.05;;
16173;SDS011;14031;50.158;8.626;2023-04-29T13:20:57;2.00;;;1.90;;
16173;SDS011;14031;50.158;8.626;2023-04-29T13:23:25;1.98;;;1.98;;
16173;SDS011;14031;50.158;8.626;2023-04-29T13:25:51;1.77;;;1.73;;
16173;SDS011;14031;50.158;8.626;2023-04-29T13:28:18;1.92;;;1.83;;
16173;SDS011;14031;50.158;8.626;2023-04-29T13:30:46;1.90;;;1.80;;
16173;SDS011;14031;50.158;8.626;2023-04-29T13:33:14;1.80;;;1.80;;
16173;SDS011;14031;50.158;8.626;2023-04-29T13:35:41;1.95;;;1.80;;
16173;SDS011;14031;50.158;8.626;2023-04-29T13:38:07;1.90;;;1.80;;
16173;SDS011;14031;50.158;8.626;2023-04-29T13:40:34;2.17;;;2.08;;
16173;SDS011;14031;50.158;8.626;2023-04-29T13:43:01;2.20;;;2.10;;
16173;SDS011;14031;50.158;8.626;2023-04-29T13:45:28;1.90;;;1.80;;
16173;SDS011;14031;50.158;8.626;2023-04-29T13:47:55;2.20;;;2.10;;
16173;SDS011;14031;50.158;8.626;2023-04-29T13:50:23;3.08;;;1.95;;
16173;SDS011;14031;50.158;8.626;2023-04-29T13:52:50;2.20;;;2.10;;
16173;SDS011;14031;50.158;8.626;2023-04-29T13:55:17;2.15;;;2.05;;
16173;SDS011;14031;50.158;8.626;2023-04-29T13:57:44;2.00;;;1.90;;
16173;SDS011;14031;50.158;8.626;2023-04-29T14:00:12;2.58;;;2.05;;
16173;SDS011;14031;50.158;8.626;2023-04-29T14:02:40;1.83;;;1.73;;
16173;SDS011;14031;50.158;8.626;2023-04-29T14:05:07;2.30;;;2.20;;
16173;SDS011;14031;50.158;8.626;2023-04-29T14:07:36;2.03;;;1.92;;
16173;SDS011;14031;50.158;8.626;2023-04-29T14:10:03;2.10;;;2.00;;
16173;SDS011;14031;50.158;8.626;2023-04-29T14:12:30;2.30;;;2.20;;
16173;SDS011;14031;50.158;8.626;2023-04-29T14:14:57;2.60;;;2.50;;
16173;SDS011;14031;50.158;8.626;2023-04-29T14:17:24;2.22;;;2.13;;
16173;SDS011;14031;50.158;8.626;2023-04-29T14:19:51;2.80;;;2.47;;
16173;SDS011;14031;50.158;8.626;2023-04-29T14:22:18;2.90;;;2.70;;
16173;SDS011;14031;50.158;8.626;2023-04-29T14:24:46;2.50;;;2.40;;
16173;SDS011;14031;50.158;8.626;2023-04-29T14:27:13;2.63;;;2.50;;
16173;SDS011;14031;50.158;8.626;2023-04-29T14:29:40;3.22;;;2.97;;
16173;SDS011;14031;50.158;8.626;2023-04-29T14:32:07;3.20;;;3.00;;
16173;SDS011;14031;50.158;8.626;2023-04-29T14:34:34;3.45;;;3.25;;
16173;SDS011;14031;50.158;8.626;2023-04-29T14:37:00;3.05;;;2.95;;
16173;SDS011;14031;50.158;8.626;2023-04-29T14:39:27;3.10;;;2.90;;
16173;SDS011;14031;50.158;8.626;2023-04-29T14:41:55;4.10;;;3.80;;
16173;SDS011;14031;50.158;8.626;2023-04-29T14:44:22;6.03;;;3.97;;
16173;SDS011;14031;50.158;8.626;2023-04-29T14:46:49;4.40;;;4.00;;
16173;SDS011;14031;50.158;8.626;2023-04-29T14:49:16;3.15;;;3.03;;
16173;SDS011;14031;50.158;8.626;2023-04-29T14:51:43;3.70;;;3.35;;
16173;SDS011;14031;50.158;8.626;2023-04-29T14:54:15;4.05;;;3.85;;